Time;durP1;ratioP1;P1;durP2;ratioP2;P2;SDS_P1;SDS_P2;PMS_P1;PMS_P2;Temp;Humidity;BMP_temperature;BMP_pressure;BME280_temperature;BME280_humidity;BME280_pressure;Samples;Min_cycle;Max_cycle;Signal;HPM_P1;HPM_P2
2022/09/05 00:02:00;;;;;;;0.88;0.10;;;23.30;86.10;;;;;;4909096;29;20341;-73
2022/09/05 00:04:46;;;;;;;0.70;0.10;;;22.80;87.60;;;;;;4906756;29;20376;-74
2022/09/05 00:07:42;;;;;;;1.48;0.25;;;22.80;88.20;;;;;;4907450;29;20024;-75
2022/09/05 00:10:18;;;;;;;0.65;0.10;;;22.50;88.10;;;;;;4867135;29;20055;-73
2022/09/05 00:12:47;;;;;;;1.70;0.10;;;22.70;88.20;;;;;;4902416;29;20539;-74
2022/09/05 00:15:32;;;;;;;0.70;0.10;;;23.50;86.10;;;;;;4910399;29;20088;-74
2022/09/05 00:18:19;;;;;;;;;;;24.20;86.70;;;;;;4904437;29;20039;-73
2022/09/05 00:21:02;;;;;;;;;;;24.40;85.20;;;;;;4902550;29;19911;-74
2022/09/05 00:23:32;;;;;;;1.45;0.10;;;25.50;83.60;;;;;;4906409;29;19919;-72
2022/09/05 00:26:24;;;;;;;0.30;0.10;;;25.90;80.80;;;;;;4896192;29;20056;-75
2022/09/05 00:29:13;;;;;;;0.25;0.10;;;26.10;80.50;;;;;;4900404;29;20076;-73
2022/09/05 00:31:52;;;;;;;1.00;0.17;;;25.30;80.70;;;;;;4898857;29;20028;-73
2022/09/05 00:34:23;;;;;;;2.03;0.20;;;25.30;80.80;;;;;;4901105;29;20476;-75
2022/09/05 00:36:55;;;;;;;0.40;0.10;;;25.70;81.20;;;;;;4898784;29;20118;-73
2022/09/05 00:39:39;;;;;;;2.28;0.20;;;25.90;78.60;;;;;;4900646;29;20076;-72
2022/09/05 00:42:18;;;;;;;0.95;0.30;;;25.50;80.80;;;;;;4901566;29;20036;-73
2022/09/05 00:44:59;;;;;;;0.60;0.10;;;25.90;81.60;;;;;;4880573;29;20063;-72
2022/09/05 00:47:42;;;;;;;1.00;0.28;;;26.00;80.20;;;;;;4904658;29;20432;-73
2022/09/05 00:50:19;;;;;;;0.30;0.10;;;26.30;78.10;;;;;;4902477;29;20040;-73
2022/09/05 00:53:01;;;;;;;2.28;0.10;;;26.20;77.30;;;;;;4903023;29;20028;-71
2022/09/05 00:55:46;;;;;;;0.45;0.10;;;26.00;77.30;;;;;;4905171;29;20036;-73
2022/09/05 00:58:31;;;;;;;1.00;0.13;;;25.50;76.50;;;;;;4904060;29;20032;-78
2022/09/05 01:01:01;;;;;;;0.57;0.08;;;25.40;77.10;;;;;;4899506;29;20480;-74
2022/09/05 01:03:41;;;;;;;0.63;0.10;;;25.50;76.80;;;;;;4903744;29;20120;-77
2022/09/05 01:06:34;;;;;;;0.55;0.10;;;25.80;76.80;;;;;;4900500;29;20047;-72
2022/09/05 01:09:32;;;;;;;0.75;0.20;;;26.20;78.30;;;;;;4901316;29;20055;-72
2022/09/05 01:12:26;;;;;;;0.30;0.10;;;26.90;78.30;;;;;;4911874;29;20032;-74
2022/09/05 01:15:08;;;;;;;0.10;0.08;;;26.40;76.10;;;;;;4905856;29;20063;-74
2022/09/05 01:17:52;;;;;;;1.58;0.30;;;26.50;76.30;;;;;;4904610;29;20108;-73
2022/09/05 01:20:42;;;;;;;0.52;0.10;;;26.50;77.40;;;;;;4912705;29;20123;-73
2022/09/05 01:23:46;;;;;;;0.57;0.20;;;26.60;76.80;;;;;;4907376;29;20039;-73
2022/09/05 01:26:16;;;;;;;0.50;0.43;;;26.90;76.10;;;;;;4906398;29;20784;-74
2022/09/05 01:29:14;;;;;;;0.43;0.10;;;26.90;75.80;;;;;;4901413;29;20052;-73
2022/09/05 01:32:09;;;;;;;1.10;0.30;;;27.00;75.00;;;;;;4912103;29;20040;-75
2022/09/05 01:34:57;;;;;;;0.43;0.10;;;26.90;74.50;;;;;;4914472;29;20028;-75
2022/09/05 01:38:04;;;;;;;0.20;0.10;;;26.90;76.40;;;;;;4900263;29;20746;-74
2022/09/05 01:41:03;;;;;;;1.58;0.30;;;26.50;73.40;;;;;;4914400;29;20036;-74
2022/09/05 01:43:58;;;;;;;1.15;0.20;;;26.20;72.90;;;;;;4901305;29;20400;-73
2022/09/05 01:46:37;;;;;;;0.38;0.17;;;26.00;73.80;;;;;;4905423;29;20582;-74
2022/09/05 01:49:13;;;;;;;1.08;0.15;;;25.60;74.00;;;;;;4904637;29;20440;-73
2022/09/05 01:52:00;;;;;;;1.38;0.20;;;25.10;74.20;;;;;;4903421;29;20108;-73
2022/09/05 01:54:33;;;;;;;0.40;0.20;;;25.30;74.80;;;;;;4904162;29;20353;-74
2022/09/05 01:57:37;;;;;;;0.85;0.10;;;25.20;77.30;;;;;;4900045;29;20028;-74
2022/09/05 02:00:29;;;;;;;0.32;0.13;;;24.70;73.80;;;;;;4874359;29;20105;-77
2022/09/05 02:03:04;;;;;;;1.95;0.30;;;24.30;76.50;;;;;;4906899;29;20078;-77
2022/09/05 02:05:52;;;;;;;0.82;0.43;;;23.40;75.90;;;;;;4895228;29;20288;-74
2022/09/05 02:08:48;;;;;;;1.10;0.10;;;22.70;77.30;;;;;;4905904;29;20530;-76
2022/09/05 02:11:16;;;;;;;0.90;0.47;;;22.00;77.90;;;;;;4906622;29;20039;-75
2022/09/05 02:13:48;;;;;;;1.08;0.45;;;21.60;79.80;;;;;;4903083;29;20032;-75
2022/09/05 02:16:22;;;;;;;1.13;0.30;;;22.40;79.50;;;;;;4903998;29;20091;-74
2022/09/05 02:18:58;;;;;;;0.40;0.20;;;23.60;79.10;;;;;;4905004;29;20076;-74
2022/09/05 02:21:32;;;;;;;0.40;0.22;;;24.70;75.90;;;;;;4903919;29;20029;-76
2022/09/05 02:24:05;;;;;;;0.60;0.10;;;25.60;76.90;;;;;;4904743;29;20395;-74
2022/09/05 02:26:39;;;;;;;1.02;0.25;;;25.50;75.80;;;;;;4902345;29;20043;-73
2022/09/05 02:29:38;;;;;;;0.20;0.10;;;24.60;74.90;;;;;;4904597;29;20043;-75
2022/09/05 02:32:30;;;;;;;1.23;0.20;;;24.30;75.60;;;;;;4901241;29;20028;-77
2022/09/05 02:35:10;;;;;;;0.50;0.22;;;23.60;76.80;;;;;;4901926;29;20032;-75
2022/09/05 02:37:50;;;;;;;1.00;0.70;;;23.60;77.30;;;;;;4904701;29;20047;-75
2022/09/05 02:40:36;;;;;;;1.15;0.25;;;24.40;77.00;;;;;;4896821;29;20139;-75
2022/09/05 02:43:22;;;;;;;;;;;25.10;78.60;;;;;;4902187;29;20108;-74
2022/09/05 02:45:56;;;;;;;0.47;0.10;;;25.40;76.70;;;;;;4900933;29;20383;-75
2022/09/05 02:48:32;;;;;;;0.17;0.10;;;24.90;76.60;;;;;;4901056;29;20044;-76
2022/09/05 02:51:22;;;;;;;0.45;0.20;;;24.60;76.70;;;;;;4901959;29;20036;-75
2022/09/05 02:53:57;;;;;;;2.70;0.20;;;24.50;75.90;;;;;;4899208;29;20031;-74
2022/09/05 02:56:58;;;;;;;0.70;0.10;;;25.10;76.90;;;;;;4903065;29;20028;-74
2022/09/05 03:00:10;;;;;;;0.80;0.13;;;25.50;74.20;;;;;;4903722;29;20134;-75
2022/09/05 03:03:04;;;;;;;0.20;0.10;;;25.60;76.00;;;;;;4902402;29;20449;-71
2022/09/05 03:05:44;;;;;;;0.38;0.10;;;25.00;73.60;;;;;;4900390;29;20056;-75
2022/09/05 03:08:45;;;;;;;1.45;0.15;;;24.00;76.90;;;;;;4899893;29;20079;-74
2022/09/05 03:11:59;;;;;;;1.50;0.30;;;23.20;76.80;;;;;;4899927;29;20048;-72
2022/09/05 03:14:48;;;;;;;0.65;0.10;;;22.90;78.20;;;;;;4908598;29;20511;-74
2022/09/05 03:17:30;;;;;;;0.63;0.22;;;22.60;77.60;;;;;;4903686;29;20031;-74
2022/09/05 03:20:18;;;;;;;0.35;0.10;;;22.40;78.30;;;;;;4902550;29;20418;-72
2022/09/05 03:23:06;;;;;;;1.10;0.32;;;22.30;79.10;;;;;;4897454;29;20381;-72
2022/09/05 03:26:02;;;;;;;0.90;0.35;;;22.10;78.20;;;;;;4899122;29;20088;-75
2022/09/05 03:28:47;;;;;;;0.08;0.00;;;22.20;79.60;;;;;;4900139;29;20035;-74
2022/09/05 03:31:29;;;;;;;0.45;0.10;;;22.20;79.40;;;;;;4901782;29;20079;-74
2022/09/05 03:34:23;;;;;;;1.73;0.40;;;22.70;79.40;;;;;;4900959;29;20046;-75
2022/09/05 03:37:14;;;;;;;0.28;0.10;;;23.30;78.50;;;;;;4901464;29;20036;-74
2022/09/05 03:40:00;;;;;;;0.88;0.22;;;23.70;77.90;;;;;;4901730;29;20032;-75
2022/09/05 03:42:52;;;;;;;0.93;0.20;;;23.90;76.90;;;;;;4900722;29;20117;-72
2022/09/05 03:45:36;;;;;;;0.45;0.10;;;24.20;77.00;;;;;;4903728;29;20046;-74
2022/09/05 03:48:24;;;;;;;0.40;0.20;;;24.10;76.50;;;;;;4904774;29;20130;-72
2022/09/05 03:50:58;;;;;;;1.30;0.35;;;24.00;74.00;;;;;;4899346;29;20035;-74
2022/09/05 03:53:34;;;;;;;1.15;0.20;;;23.80;77.70;;;;;;4901282;29;20024;-74
2022/09/05 03:56:36;;;;;;;0.75;0.35;;;23.40;77.00;;;;;;4901274;29;20119;-73
2022/09/05 03:59:29;;;;;;;0.73;0.17;;;23.10;78.60;;;;;;4897677;29;20071;-73
2022/09/05 04:02:04;;;;;;;0.65;0.25;;;22.60;78.90;;;;;;4888609;29;20041;-73
2022/09/05 04:04:48;;;;;;;2.08;0.20;;;22.20;77.90;;;;;;4904382;29;20499;-74
2022/09/05 04:07:39;;;;;;;2.28;0.43;;;21.80;79.90;;;;;;4899227;29;20047;-75
2022/09/05 04:10:31;;;;;;;0.43;0.20;;;21.40;81.40;;;;;;4900579;29;20114;-73
2022/09/05 04:13:22;;;;;;;0.82;0.25;;;21.00;82.90;;;;;;4899631;29;20036;-76
2022/09/05 04:16:16;;;;;;;2.38;0.30;;;20.70;83.30;;;;;;4899272;29;20028;-74
2022/09/05 04:18:54;;;;;;;2.15;0.30;;;20.60;83.60;;;;;;4901902;29;21583;-74
2022/09/05 04:21:32;;;;;;;1.90;0.30;;;20.90;82.90;;;;;;4900301;29;20031;-73
2022/09/05 04:24:05;;;;;;;0.40;0.10;;;21.10;83.30;;;;;;4899858;29;20032;-73
2022/09/05 04:27:09;;;;;;;1.02;0.20;;;20.90;84.70;;;;;;4900656;29;20309;-76
2022/09/05 04:29:57;;;;;;;3.75;0.30;;;20.60;85.50;;;;;;4896983;29;20032;-73
2022/09/05 04:32:49;;;;;;;0.93;0.20;;;20.30;86.40;;;;;;4902966;29;20159;-76
2022/09/05 04:35:25;;;;;;;3.22;0.68;;;20.10;88.00;;;;;;4898430;29;20039;-75
2022/09/05 04:37:58;;;;;;;2.60;0.20;;;19.80;88.30;;;;;;4901741;29;20028;-74
2022/09/05 04:40:45;;;;;;;3.25;0.40;;;19.80;89.00;;;;;;4903051;29;20044;-75
2022/09/05 04:43:18;;;;;;;1.50;0.20;;;19.80;88.60;;;;;;4901675;29;20106;-75
2022/09/05 04:45:52;;;;;;;2.45;0.45;;;20.00;88.10;;;;;;4897207;29;20033;-74
2022/09/05 04:48:32;;;;;;;0.22;0.20;;;20.00;87.20;;;;;;4901082;29;20028;-74
2022/09/05 04:51:07;;;;;;;0.47;0.20;;;20.00;87.80;;;;;;4900441;29;20147;-73
2022/09/05 04:53:41;;;;;;;3.30;0.13;;;20.00;87.50;;;;;;4901115;29;20084;-74
2022/09/05 04:56:20;;;;;;;0.47;0.20;;;20.10;87.20;;;;;;4899796;29;20036;-75
2022/09/05 04:58:59;;;;;;;2.97;0.32;;;20.20;87.20;;;;;;4903378;29;20040;-74
2022/09/05 05:01:39;;;;;;;2.75;0.20;;;20.10;87.30;;;;;;4904940;29;20460;-74
2022/09/05 05:04:15;;;;;;;2.58;0.20;;;20.00;88.30;;;;;;4899621;29;20028;-74
2022/09/05 05:06:48;;;;;;;;;;;19.90;88.80;;;;;;4897957;29;20063;-74
2022/09/05 05:09:18;;;;;;;0.40;0.20;;;19.90;88.60;;;;;;4899190;29;19965;-74
2022/09/05 05:12:08;;;;;;;0.38;0.30;;;19.60;89.80;;;;;;4899549;29;20051;-75
2022/09/05 05:15:11;;;;;;;1.30;0.25;;;19.70;88.50;;;;;;4898215;29;20064;-74
2022/09/05 05:17:58;;;;;;;0.75;0.35;;;19.70;88.70;;;;;;4900811;29;20028;-75
2022/09/05 05:20:28;;;;;;;0.22;0.17;;;19.60;88.70;;;;;;4906536;29;20044;-75
2022/09/05 05:23:15;;;;;;;2.65;0.55;;;19.50;88.20;;;;;;4901847;29;20025;-74
2022/09/05 05:25:54;;;;;;;2.40;0.20;;;19.50;88.60;;;;;;4898403;29;20072;-76
2022/09/05 05:28:45;;;;;;;1.98;0.40;;;19.50;89.10;;;;;;4899282;29;20038;-73
2022/09/05 05:31:21;;;;;;;3.60;0.68;;;19.40;89.60;;;;;;4897256;29;20039;-74
2022/09/05 05:33:49;;;;;;;;;;;19.40;90.10;;;;;;4907356;29;20032;-74
2022/09/05 05:36:24;;;;;;;2.90;0.50;;;19.30;90.20;;;;;;4900006;29;19958;-75
2022/09/05 05:39:20;;;;;;;3.70;0.68;;;19.20;90.10;;;;;;4902391;29;20036;-75
2022/09/05 05:41:54;;;;;;;1.67;0.30;;;19.10;90.40;;;;;;4896805;29;20594;-76
2022/09/05 05:44:25;;;;;;;3.65;0.32;;;19.10;90.50;;;;;;4902159;29;20051;-75
2022/09/05 05:47:02;;;;;;;0.82;0.40;;;19.20;90.40;;;;;;4901355;29;20028;-73
2022/09/05 05:49:59;;;;;;;1.77;0.57;;;19.50;90.10;;;;;;4900061;29;20542;-74
2022/09/05 05:52:42;;;;;;;0.43;0.20;;;19.60;89.40;;;;;;4900858;29;20045;-74
2022/09/05 05:55:45;;;;;;;0.65;0.25;;;19.60;89.20;;;;;;4899789;29;20044;-73
2022/09/05 05:58:32;;;;;;;0.20;0.10;;;19.50;89.70;;;;;;4904058;29;20126;-73
2022/09/05 06:01:43;;;;;;;0.98;0.30;;;19.50;90.10;;;;;;4905121;29;20511;-74
2022/09/05 06:04:45;;;;;;;2.70;0.38;;;19.40;90.10;;;;;;4890124;29;20044;-75
2022/09/05 06:07:45;;;;;;;1.27;0.40;;;19.20;90.10;;;;;;4904372;29;20210;-75
2022/09/05 06:10:36;;;;;;;3.22;0.57;;;18.80;90.30;;;;;;4903229;29;20052;-74
2022/09/05 06:13:48;;;;;;;1.05;0.30;;;18.70;90.50;;;;;;4905002;29;20032;-75
2022/09/05 06:16:22;;;;;;;2.00;0.20;;;18.70;90.50;;;;;;4885863;29;20075;-74
2022/09/05 06:18:52;;;;;;;0.43;0.20;;;18.70;90.50;;;;;;4904535;29;20032;-75
2022/09/05 06:21:26;;;;;;;2.42;1.05;;;18.60;90.90;;;;;;4903525;29;20055;-75
2022/09/05 06:24:24;;;;;;;3.58;0.20;;;18.50;91.00;;;;;;4905279;29;20100;-74
2022/09/05 06:27:13;;;;;;;3.50;0.20;;;18.70;91.10;;;;;;4903314;29;20744;-74
2022/09/05 06:29:58;;;;;;;2.55;0.45;;;18.80;90.70;;;;;;4904201;29;20039;-74
2022/09/05 06:32:35;;;;;;;1.75;0.38;;;18.90;91.00;;;;;;4901490;29;20024;-74
2022/09/05 06:35:08;;;;;;;0.90;0.20;;;18.90;90.90;;;;;;4902599;29;20068;-73
2022/09/05 06:37:44;;;;;;;2.05;0.77;;;19.00;90.70;;;;;;4906018;29;20060;-74
2022/09/05 06:40:17;;;;;;;2.30;0.20;;;18.90;90.70;;;;;;4904256;29;20054;-73
2022/09/05 06:43:30;;;;;;;1.33;0.30;;;18.80;90.70;;;;;;4908940;29;20380;-73
2022/09/05 06:46:22;;;;;;;0.75;0.40;;;18.60;90.70;;;;;;4903062;29;20040;-73
2022/09/05 06:49:05;;;;;;;3.55;0.40;;;18.30;90.70;;;;;;4903461;29;20040;-73
2022/09/05 06:51:40;;;;;;;2.78;0.30;;;18.20;91.10;;;;;;4906375;29;20032;-75
2022/09/05 06:54:25;;;;;;;0.98;0.32;;;18.10;91.30;;;;;;4914419;29;20099;-74
2022/09/05 06:56:58;;;;;;;1.90;0.73;;;17.90;91.40;;;;;;4910997;29;20057;-74
2022/09/05 06:59:26;;;;;;;1.30;0.28;;;17.70;91.70;;;;;;4913110;29;20302;-74
2022/09/05 07:02:07;;;;;;;3.10;0.43;;;17.60;91.70;;;;;;4911893;29;20028;-73
2022/09/05 07:04:50;;;;;;;1.05;0.30;;;17.50;91.50;;;;;;4914149;29;20024;-73
2022/09/05 07:07:43;;;;;;;2.20;0.40;;;17.20;91.90;;;;;;4906060;29;20074;-74
2022/09/05 07:10:35;;;;;;;1.15;0.30;;;17.10;92.20;;;;;;4898310;29;20052;-73
2022/09/05 07:13:16;;;;;;;1.00;0.30;;;16.80;92.40;;;;;;4914455;29;20040;-74
2022/09/05 07:15:56;;;;;;;2.30;0.55;;;16.60;92.20;;;;;;4904091;29;20112;-74
2022/09/05 07:18:53;;;;;;;1.20;0.50;;;16.40;92.40;;;;;;4905154;29;20040;-74
2022/09/05 07:21:51;;;;;;;4.22;0.30;;;16.20;92.50;;;;;;4907767;29;20067;-73
2022/09/05 07:24:23;;;;;;;2.88;0.70;;;16.00;93.10;;;;;;4902900;29;20032;-75
2022/09/05 07:26:52;;;;;;;2.38;0.43;;;15.80;93.30;;;;;;4908215;29;20123;-75
2022/09/05 07:29:34;;;;;;;1.23;0.20;;;15.70;93.60;;;;;;4919891;29;20559;-74
2022/09/05 07:32:05;;;;;;;1.55;0.32;;;15.60;93.90;;;;;;4911043;29;20119;-74
2022/09/05 07:34:34;;;;;;;3.95;0.50;;;15.40;94.10;;;;;;4914004;29;20452;-73
2022/09/05 07:37:07;;;;;;;1.00;0.40;;;15.30;94.20;;;;;;4911489;29;20028;-74
2022/09/05 07:39:40;;;;;;;2.42;0.40;;;15.30;94.50;;;;;;4907458;29;20459;-74
2022/09/05 07:42:14;;;;;;;2.10;0.22;;;15.20;94.80;;;;;;4908037;29;20039;-73
2022/09/05 07:44:58;;;;;;;2.30;0.28;;;15.10;94.90;;;;;;4908198;29;20034;-74
2022/09/05 07:47:32;;;;;;;2.10;1.00;;;15.00;94.90;;;;;;4904714;29;20476;-75
2022/09/05 07:50:11;;;;;;;4.50;1.20;;;14.90;94.70;;;;;;4902715;29;20039;-74
2022/09/05 07:52:43;;;;;;;4.72;0.52;;;14.80;94.70;;;;;;4901915;29;20028;-74
2022/09/05 07:55:38;;;;;;;2.35;0.70;;;14.80;94.90;;;;;;4905740;29;20475;-74
2022/09/05 07:58:11;;;;;;;2.15;0.40;;;14.70;95.00;;;;;;4902937;29;20032;-74
2022/09/05 08:00:41;;;;;;;6.22;0.70;;;14.60;95.00;;;;;;4905588;29;20036;-74
2022/09/05 08:03:13;;;;;;;1.70;0.70;;;14.50;94.90;;;;;;4908420;29;20039;-73
2022/09/05 08:05:49;;;;;;;5.05;0.98;;;14.50;95.10;;;;;;4905461;29;20829;-74
2022/09/05 08:08:24;;;;;;;2.88;0.45;;;14.50;95.10;;;;;;4904542;29;20515;-73
2022/09/05 08:10:52;;;;;;;2.92;1.00;;;14.40;95.40;;;;;;4902119;29;20051;-74
2022/09/05 08:13:48;;;;;;;3.28;0.65;;;14.30;95.50;;;;;;4907229;29;20066;-76
2022/09/05 08:16:19;;;;;;;5.15;1.08;;;14.30;95.40;;;;;;4900200;29;20561;-74
2022/09/05 08:19:05;;;;;;;4.38;1.27;;;14.20;95.40;;;;;;4900360;29;20044;-75
2022/09/05 08:21:48;;;;;;;4.20;0.73;;;14.10;95.60;;;;;;4908043;29;20035;-75
2022/09/05 08:24:37;;;;;;;3.47;0.93;;;14.10;95.50;;;;;;4904912;29;20199;-74
2022/09/05 08:27:18;;;;;;;2.78;0.70;;;14.00;95.50;;;;;;4908353;29;20036;-73
2022/09/05 08:29:58;;;;;;;1.95;0.70;;;14.00;95.50;;;;;;4896674;29;20183;-74
2022/09/05 08:32:45;;;;;;;3.78;0.80;;;13.90;95.60;;;;;;4899662;29;20484;-74
2022/09/05 08:35:21;;;;;;;1.35;1.00;;;13.90;95.70;;;;;;4906737;29;20112;-75
2022/09/05 08:37:50;;;;;;;1.30;0.98;;;13.80;95.70;;;;;;4906140;29;20068;-73
2022/09/05 08:40:54;;;;;;;4.70;1.05;;;13.70;95.80;;;;;;4908974;29;20040;-74
2022/09/05 08:43:34;;;;;;;7.90;0.75;;;13.60;95.60;;;;;;4860781;29;20045;-74
2022/09/05 08:46:12;;;;;;;1.85;0.50;;;13.60;95.80;;;;;;4901071;29;20449;-73
2022/09/05 08:49:10;;;;;;;3.22;0.57;;;13.60;95.90;;;;;;4893575;29;20091;-75
2022/09/05 08:51:50;;;;;;;2.15;0.65;;;13.50;95.70;;;;;;4908763;29;20141;-74
2022/09/05 08:54:18;;;;;;;3.17;0.70;;;13.50;95.80;;;;;;4908987;29;20108;-74
2022/09/05 08:57:11;;;;;;;4.07;0.50;;;13.50;95.70;;;;;;4895538;29;20127;-75
2022/09/05 08:59:52;;;;;;;4.28;0.90;;;13.40;95.80;;;;;;4884488;29;20060;-74
2022/09/05 09:02:43;;;;;;;4.60;1.10;;;13.40;96.00;;;;;;4901090;29;20784;-74
2022/09/05 09:05:31;;;;;;;3.70;1.70;;;13.40;95.80;;;;;;4902322;29;20071;-74
2022/09/05 09:08:30;;;;;;;4.85;1.92;;;13.30;96.00;;;;;;4894563;29;20029;-75
2022/09/05 09:11:11;;;;;;;3.78;0.95;;;13.30;95.90;;;;;;4910797;29;20044;-74
2022/09/05 09:13:55;;;;;;;1.13;0.60;;;13.30;96.00;;;;;;4899085;29;20021;-74
2022/09/05 09:16:33;;;;;;;9.48;5.20;;;13.30;95.90;;;;;;4904887;29;20028;-74
2022/09/05 09:19:22;;;;;;;6.50;3.28;;;13.30;96.10;;;;;;4914871;29;20560;-74
2022/09/05 09:22:23;;;;;;;3.90;1.27;;;13.30;96.20;;;;;;4911007;29;20059;-74
2022/09/05 09:25:31;;;;;;;6.05;2.67;;;13.30;96.20;;;;;;4905602;29;20379;-75
2022/09/05 09:28:26;;;;;;;3.40;2.17;;;13.30;96.20;;;;;;4873272;29;20115;-74
2022/09/05 09:31:35;;;;;;;4.60;2.22;;;13.30;96.40;;;;;;4901384;29;20036;-74
2022/09/05 09:34:12;;;;;;;6.97;4.00;;;13.30;96.40;;;;;;4906386;29;20051;-74
2022/09/05 09:36:57;;;;;;;5.15;2.58;;;13.30;96.70;;;;;;4912475;29;20035;-74
2022/09/05 09:39:56;;;;;;;2.40;1.45;;;13.30;96.70;;;;;;4913681;29;20040;-74
2022/09/05 09:43:01;;;;;;;3.63;1.45;;;13.20;96.70;;;;;;4912905;29;20055;-75
2022/09/05 09:45:54;;;;;;;2.47;1.00;;;13.20;96.70;;;;;;4911593;29;20067;-75
2022/09/05 09:48:36;;;;;;;2.90;1.23;;;13.10;96.70;;;;;;4873547;29;20091;-75
2022/09/05 09:51:07;;;;;;;4.93;1.15;;;13.20;96.90;;;;;;4905350;29;20029;-75
2022/09/05 09:54:32;;;;;;;4.70;1.02;;;13.10;97.00;;;;;;4915004;29;20044;-74
2022/09/05 09:57:08;;;;;;;4.80;0.90;;;13.10;96.90;;;;;;4780615;29;20039;-74
2022/09/05 09:59:38;;;;;;;;;;;13.10;97.00;;;;;;4882248;29;20156;-75
2022/09/05 10:02:33;;;;;;;2.47;1.85;;;13.10;97.10;;;;;;4914492;29;19921;-76
2022/09/05 10:05:10;;;;;;;1.52;0.80;;;13.20;97.20;;;;;;4898939;29;20031;-75
2022/09/05 10:07:56;;;;;;;2.45;1.10;;;13.20;97.30;;;;;;4900558;29;20424;-75
2022/09/05 10:11:02;;;;;;;3.20;1.02;;;13.20;97.40;;;;;;4911268;29;20064;-74
2022/09/05 10:13:44;;;;;;;2.85;1.13;;;13.20;97.30;;;;;;4811729;29;20508;-75
2022/09/05 10:16:34;;;;;;;2.75;0.80;;;13.10;97.30;;;;;;4896978;29;20079;-76
2022/09/05 10:19:31;;;;;;;1.02;0.80;;;13.00;97.30;;;;;;4911856;29;20503;-75
2022/09/05 10:22:32;;;;;;;2.42;0.60;;;13.00;97.40;;;;;;4909136;29;20123;-75
2022/09/05 10:25:21;;;;;;;3.42;0.82;;;13.00;97.60;;;;;;4900368;29;20380;-75
2022/09/05 10:28:06;;;;;;;1.27;0.70;;;13.00;97.90;;;;;;4900291;29;20060;-75
2022/09/05 10:30:56;;;;;;;3.45;0.90;;;12.90;97.90;;;;;;4908006;29;20058;-75
2022/09/05 10:33:43;;;;;;;3.20;0.93;;;12.90;97.90;;;;;;4910248;29;20032;-75
2022/09/05 10:36:30;;;;;;;4.95;1.77;;;12.90;98.00;;;;;;4912269;29;20036;-76
2022/09/05 10:39:18;;;;;;;2.65;0.60;;;12.90;98.10;;;;;;4911630;29;20047;-75
2022/09/05 10:41:51;;;;;;;2.60;0.82;;;12.80;98.00;;;;;;4911565;29;20072;-75
2022/09/05 10:44:39;;;;;;;0.95;0.70;;;12.80;98.10;;;;;;4912227;29;20440;-75
2022/09/05 10:47:32;;;;;;;1.35;0.73;;;12.80;98.20;;;;;;4913811;29;20057;-76
2022/09/05 10:50:30;;;;;;;5.75;1.17;;;12.80;98.30;;;;;;4898739;29;20286;-75
2022/09/05 10:53:17;;;;;;;5.35;1.05;;;12.70;98.40;;;;;;4911302;29;20028;-75
2022/09/05 10:56:16;;;;;;;1.70;0.82;;;12.60;98.50;;;;;;4900836;29;20366;-75
2022/09/05 10:59:00;;;;;;;1.85;1.00;;;12.50;98.70;;;;;;4899616;29;20041;-76
2022/09/05 11:02:03;;;;;;;1.30;0.77;;;12.50;99.00;;;;;;4905831;29;20028;-76
2022/09/05 11:04:59;;;;;;;2.85;0.82;;;12.40;99.10;;;;;;4913630;29;20475;-77
2022/09/05 11:08:03;;;;;;;3.45;0.80;;;12.30;99.30;;;;;;4813786;29;20131;-76
2022/09/05 11:11:02;;;;;;;1.90;0.60;;;12.30;99.40;;;;;;4898034;29;20051;-76
2022/09/05 11:13:46;;;;;;;2.42;0.60;;;12.20;99.50;;;;;;4913479;29;21660;-75
2022/09/05 11:16:43;;;;;;;3.28;0.80;;;12.20;99.70;;;;;;4902326;29;20036;-76
2022/09/05 11:19:40;;;;;;;2.67;0.90;;;12.20;99.80;;;;;;4911597;29;20557;-75
2022/09/05 11:22:08;;;;;;;2.33;0.80;;;12.10;99.80;;;;;;4909473;29;20088;-76
2022/09/05 11:24:50;;;;;;;0.90;0.60;;;12.10;99.90;;;;;;4912907;29;20542;-75
2022/09/05 11:27:42;;;;;;;1.52;1.00;;;12.10;99.90;;;;;;4907399;29;20065;-75
2022/09/05 11:30:21;;;;;;;3.35;0.80;;;12.00;99.90;;;;;;4911374;29;20479;-75
2022/09/05 11:33:10;;;;;;;7.78;1.95;;;11.90;99.90;;;;;;4907364;29;20114;-75
2022/09/05 11:35:53;;;;;;;2.70;1.70;;;11.90;99.90;;;;;;4907438;29;20032;-74
2022/09/05 11:38:26;;;;;;;3.75;1.55;;;11.80;99.90;;;;;;4910936;29;20479;-75
2022/09/05 11:41:10;;;;;;;3.42;1.10;;;11.80;99.90;;;;;;4911997;29;20483;-74
2022/09/05 11:43:49;;;;;;;2.35;1.38;;;11.70;99.90;;;;;;4908395;29;20028;-76
2022/09/05 11:46:49;;;;;;;4.55;1.88;;;11.70;99.90;;;;;;4912089;29;20044;-74
2022/09/05 11:49:51;;;;;;;3.50;1.80;;;11.70;99.90;;;;;;4904152;29;20563;-74
2022/09/05 11:52:40;;;;;;;2.97;1.90;;;11.70;99.90;;;;;;4895766;29;20181;-76
2022/09/05 11:55:33;;;;;;;3.42;1.58;;;11.70;99.90;;;;;;4896700;29;20024;-75
2022/09/05 11:58:12;;;;;;;2.90;1.10;;;11.60;99.90;;;;;;4895364;29;20176;-75
2022/09/05 12:01:05;;;;;;;4.25;0.85;;;11.60;99.90;;;;;;4905317;29;20153;-74
2022/09/05 12:04:05;;;;;;;4.65;0.95;;;11.60;99.90;;;;;;4870623;29;20047;-74
2022/09/05 12:07:25;;;;;;;2.70;1.00;;;11.60;99.90;;;;;;4904246;29;20043;-76
2022/09/05 12:10:17;;;;;;;3.80;1.40;;;11.50;99.90;;;;;;4872187;29;20127;-76
2022/09/05 12:13:15;;;;;;;3.50;0.80;;;11.40;99.90;;;;;;4912175;29;20036;-75
2022/09/05 12:15:47;;;;;;;2.15;1.20;;;11.40;99.90;;;;;;4848470;29;20051;-75
2022/09/05 12:18:41;;;;;;;2.65;1.23;;;11.40;99.90;;;;;;4918700;29;20024;-75
2022/09/05 12:21:27;;;;;;;4.35;1.17;;;11.30;99.90;;;;;;4905289;29;20068;-75
2022/09/05 12:24:09;;;;;;;5.05;1.00;;;11.30;99.90;;;;;;4914029;29;20056;-76
2022/09/05 12:27:06;;;;;;;4.30;1.88;;;11.30;99.90;;;;;;4904316;29;20037;-75
2022/09/05 12:29:48;;;;;;;3.83;1.90;;;11.30;99.90;;;;;;4913437;29;20027;-73
2022/09/05 12:32:24;;;;;;;7.72;1.75;;;11.20;99.90;;;;;;4913916;29;20036;-74
2022/09/05 12:34:56;;;;;;;5.13;1.40;;;11.20;99.90;;;;;;4911555;29;20727;-75
2022/09/05 12:37:23;;;;;;;2.33;1.20;;;11.10;99.90;;;;;;4907349;29;20032;-76
2022/09/05 12:39:57;;;;;;;3.60;1.60;;;11.10;99.90;;;;;;4902057;29;20044;-76
2022/09/05 12:42:42;;;;;;;3.35;1.40;;;11.10;99.90;;;;;;4912479;29;20051;-75
2022/09/05 12:45:46;;;;;;;5.32;1.40;;;11.00;99.90;;;;;;4897589;29;20032;-74
2022/09/05 12:48:29;;;;;;;2.55;1.30;;;10.90;99.90;;;;;;4898261;29;20020;-76
2022/09/05 12:50:56;;;;;;;6.57;1.80;;;10.90;99.90;;;;;;4909722;29;20028;-75
2022/09/05 12:53:34;;;;;;;4.75;1.92;;;10.90;99.90;;;;;;4908549;29;20032;-73
2022/09/05 12:56:07;;;;;;;4.15;2.03;;;10.80;99.90;;;;;;4910348;29;20091;-74
2022/09/05 12:58:37;;;;;;;4.50;1.75;;;10.80;99.90;;;;;;4910664;29;20099;-74
2022/09/05 13:01:15;;;;;;;4.22;1.35;;;10.70;99.90;;;;;;4900392;29;20744;-74
2022/09/05 13:03:55;;;;;;;1.92;0.80;;;10.70;99.90;;;;;;4908724;29;20028;-73
2022/09/05 13:06:30;;;;;;;3.05;1.58;;;10.70;99.90;;;;;;4909990;29;20078;-74
2022/09/05 13:09:25;;;;;;;2.63;0.70;;;10.60;99.90;;;;;;4916691;29;20472;-74
2022/09/05 13:12:08;;;;;;;2.50;0.80;;;10.60;99.90;;;;;;4908241;29;20171;-74
2022/09/05 13:15:04;;;;;;;1.30;0.60;;;10.60;99.90;;;;;;4898326;29;20064;-74
2022/09/05 13:17:43;;;;;;;3.15;0.63;;;10.50;99.90;;;;;;4900693;29;20477;-73
2022/09/05 13:20:35;;;;;;;1.90;1.25;;;10.50;99.90;;;;;;4913790;29;20048;-74
2022/09/05 13:23:35;;;;;;;1.02;0.60;;;10.50;99.90;;;;;;4914714;29;20064;-74
2022/09/05 13:26:10;;;;;;;3.78;1.02;;;10.40;99.90;;;;;;4901869;29;20127;-74
2022/09/05 13:28:51;;;;;;;1.65;0.55;;;10.40;99.90;;;;;;4899235;29;20115;-74
2022/09/05 13:31:40;;;;;;;2.05;1.27;;;10.50;99.90;;;;;;4911606;29;20040;-74
2022/09/05 13:34:26;;;;;;;5.05;0.85;;;10.50;99.90;;;;;;4888974;29;20166;-73
2022/09/05 13:36:58;;;;;;;2.05;0.85;;;10.50;99.90;;;;;;4913655;29;20035;-74
2022/09/05 13:39:36;;;;;;;2.55;0.70;;;10.50;99.90;;;;;;4913549;29;20055;-74
2022/09/05 13:42:04;;;;;;;2.08;0.70;;;10.50;99.90;;;;;;4898412;29;20372;-74
2022/09/05 13:44:39;;;;;;;4.55;0.90;;;10.50;99.90;;;;;;4902423;29;20063;-74
2022/09/05 13:47:19;;;;;;;2.17;0.70;;;10.50;99.90;;;;;;4914984;29;20226;-73
2022/09/05 13:50:01;;;;;;;2.17;0.50;;;10.40;99.90;;;;;;4907065;29;20028;-75
2022/09/05 13:52:39;;;;;;;3.25;0.73;;;10.40;99.90;;;;;;4902833;29;20059;-73
2022/09/05 13:55:19;;;;;;;1.77;0.70;;;10.40;99.90;;;;;;4893626;29;20129;-74
2022/09/05 13:58:11;;;;;;;2.90;0.60;;;10.40;99.90;;;;;;4880197;29;20032;-74
2022/09/05 14:00:42;;;;;;;1.35;0.85;;;10.50;99.90;;;;;;4908587;29;20125;-75
2022/09/05 14:03:54;;;;;;;4.97;0.77;;;10.50;99.90;;;;;;4913394;29;20059;-76
2022/09/05 14:06:34;;;;;;;1.05;0.50;;;10.50;99.90;;;;;;4905049;29;20047;-76
2022/09/05 14:09:07;;;;;;;1.38;0.63;;;10.60;99.90;;;;;;4912169;29;20060;-74
2022/09/05 14:12:05;;;;;;;3.13;0.50;;;10.60;99.90;;;;;;4906290;29;20025;-76
2022/09/05 14:14:36;;;;;;;1.40;0.60;;;10.70;99.90;;;;;;4907757;29;20036;-75
2022/09/05 14:17:29;;;;;;;1.05;0.50;;;10.70;99.90;;;;;;4925741;29;20038;-74
2022/09/05 14:22:49;;;;;;;2.60;1.20;;;10.60;99.90;;;;;;4905382;29;20122;-74